< < Back
Terminal Aerodrome Forecast


Current Version              Previous Versions:   1  2  3  4  5  6  7  8  9  

Terminal Aerodrome Forecast

413
FTUS44 KOHX 242300
TAFBNA
TAF
KBNA 242331Z 2500/2524 17005KT P6SM -SHRA BKN080 OVC100
     FM250400 17005KT 5SM -SHRA VCTS BKN025CB OVC050
     FM250800 17010KT 4SM TSRA BR BKN010CB OVC025
     FM251400 18010G18KT P6SM VCSH SCT015 BKN150
     FM251700 21012G24KT P6SM SCT020=

Latest METAR

855
SAUS70 KWBC 250400 RRB
MTRBNA
METAR KBNA 250353Z 18006KT 10SM -RA OVC100 13/10 A2990 RMK AO2 SLP123
P0001 T01280100


USA.gov is the U.S. government's official web portal to all federal, state and local government web resources and services.